sensor_id;sensor_type;location;lat;lon;timestamp;temperature;humidity
15409;DHT22;7803;48.130;13.788;2022-09-16T00:02:52;22.50;99.90
15409;DHT22;7803;48.130;13.788;2022-09-16T00:05:54;22.50;99.90
15409;DHT22;7803;48.130;13.788;2022-09-16T00:08:59;22.50;99.90
15409;DHT22;7803;48.130;13.788;2022-09-16T00:12:01;22.50;99.90
15409;DHT22;7803;48.130;13.788;2022-09-16T00:15:04;22.50;99.90
15409;DHT22;7803;48.130;13.788;2022-09-16T00:18:06;22.50;99.90
15409;DHT22;7803;48.130;13.788;2022-09-16T00:21:09;22.50;99.90
15409;DHT22;7803;48.130;13.788;2022-09-16T00:24:13;22.50;99.90
15409;DHT22;7803;48.130;13.788;2022-09-16T00:27:16;22.50;99.90
15409;DHT22;7803;48.130;13.788;2022-09-16T00:30:18;22.40;99.90
15409;DHT22;7803;48.130;13.788;2022-09-16T00:33:20;22.50;99.90
15409;DHT22;7803;48.130;13.788;2022-09-16T00:36:22;22.50;99.90
15409;DHT22;7803;48.130;13.788;2022-09-16T00:39:26;22.40;99.90
15409;DHT22;7803;48.130;13.788;2022-09-16T00:42:28;22.50;99.90
15409;DHT22;7803;48.130;13.788;2022-09-16T00:45:30;22.50;99.90
15409;DHT22;7803;48.130;13.788;2022-09-16T00:48:33;22.40;99.90
15409;DHT22;7803;48.130;13.788;2022-09-16T00:51:36;22.40;99.90
15409;DHT22;7803;48.130;13.788;2022-09-16T00:54:40;22.50;99.90
15409;DHT22;7803;48.130;13.788;2022-09-16T00:57:43;22.40;99.90
15409;DHT22;7803;48.130;13.788;2022-09-16T01:00:46;22.40;99.90
15409;DHT22;7803;48.130;13.788;2022-09-16T01:03:50;22.40;99.90
15409;DHT22;7803;48.130;13.788;2022-09-16T01:06:54;22.40;99.90
15409;DHT22;7803;48.130;13.788;2022-09-16T01:09:58;22.40;99.90
15409;DHT22;7803;48.130;13.788;2022-09-16T01:13:04;22.50;99.90
15409;DHT22;7803;48.130;13.788;2022-09-16T01:16:11;22.40;99.90
15409;DHT22;7803;48.130;13.788;2022-09-16T01:19:27;22.50;99.90
15409;DHT22;7803;48.130;13.788;2022-09-16T01:22:45;22.50;99.90
15409;DHT22;7803;48.130;13.788;2022-09-16T01:26:07;22.50;99.90
15409;DHT22;7803;48.130;13.788;2022-09-16T01:29:25;22.40;99.90
15409;DHT22;7803;48.130;13.788;2022-09-16T01:32:39;22.40;99.90
15409;DHT22;7803;48.130;13.788;2022-09-16T01:35:55;22.40;99.90
15409;DHT22;7803;48.130;13.788;2022-09-16T01:39:07;22.40;99.90
15409;DHT22;7803;48.130;13.788;2022-09-16T01:42:19;22.40;99.90
15409;DHT22;7803;48.130;13.788;2022-09-16T01:45:31;22.40;99.90
15409;DHT22;7803;48.130;13.788;2022-09-16T01:48:38;22.40;99.90
15409;DHT22;7803;48.130;13.788;2022-09-16T01:51:48;22.50;99.90
15409;DHT22;7803;48.130;13.788;2022-09-16T01:54:54;22.40;99.90
15409;DHT22;7803;48.130;13.788;2022-09-16T01:58:02;22.50;99.90
15409;DHT22;7803;48.130;13.788;2022-09-16T02:01:08;22.50;99.90
15409;DHT22;7803;48.130;13.788;2022-09-16T02:04:22;22.40;99.90
15409;DHT22;7803;48.130;13.788;2022-09-16T02:07:28;22.40;99.90
15409;DHT22;7803;48.130;13.788;2022-09-16T02:10:34;22.40;99.90
15409;DHT22;7803;48.130;13.788;2022-09-16T02:13:41;22.40;99.90
15409;DHT22;7803;48.130;13.788;2022-09-16T02:16:48;22.40;99.90
15409;DHT22;7803;48.130;13.788;2022-09-16T02:19:56;22.40;99.90
15409;DHT22;7803;48.130;13.788;2022-09-16T02:23:03;22.40;99.90
15409;DHT22;7803;48.130;13.788;2022-09-16T02:26:09;22.40;99.90
15409;DHT22;7803;48.130;13.788;2022-09-16T02:29:16;22.40;99.90
15409;DHT22;7803;48.130;13.788;2022-09-16T02:32:22;22.40;99.90
15409;DHT22;7803;48.130;13.788;2022-09-16T02:35:27;22.40;99.90
15409;DHT22;7803;48.130;13.788;2022-09-16T02:38:35;22.40;99.90
15409;DHT22;7803;48.130;13.788;2022-09-16T02:41:39;22.40;99.90
15409;DHT22;7803;48.130;13.788;2022-09-16T02:44:42;22.30;99.90
15409;DHT22;7803;48.130;13.788;2022-09-16T02:47:53;22.40;99.90
15409;DHT22;7803;48.130;13.788;2022-09-16T02:51:03;22.40;99.90
15409;DHT22;7803;48.130;13.788;2022-09-16T02:54:10;22.40;99.90
15409;DHT22;7803;48.130;13.788;2022-09-16T02:57:14;22.30;99.90
15409;DHT22;7803;48.130;13.788;2022-09-16T03:00:16;22.40;99.90
15409;DHT22;7803;48.130;13.788;2022-09-16T03:03:19;22.40;99.90
15409;DHT22;7803;48.130;13.788;2022-09-16T03:06:24;22.40;99.90
15409;DHT22;7803;48.130;13.788;2022-09-16T03:09:26;22.40;99.90
15409;DHT22;7803;48.130;13.788;2022-09-16T03:12:44;22.40;99.90
15409;DHT22;7803;48.130;13.788;2022-09-16T03:15:57;22.30;99.90
15409;DHT22;7803;48.130;13.788;2022-09-16T03:19:08;22.40;99.90
15409;DHT22;7803;48.130;13.788;2022-09-16T03:22:17;22.40;99.90
15409;DHT22;7803;48.130;13.788;2022-09-16T03:25:41;22.40;99.90
15409;DHT22;7803;48.130;13.788;2022-09-16T03:28:53;22.30;99.90
15409;DHT22;7803;48.130;13.788;2022-09-16T03:32:04;22.40;99.90
15409;DHT22;7803;48.130;13.788;2022-09-16T03:35:12;22.40;99.90
15409;DHT22;7803;48.130;13.788;2022-09-16T03:38:17;22.40;99.90
15409;DHT22;7803;48.130;13.788;2022-09-16T03:41:21;22.40;99.90
15409;DHT22;7803;48.130;13.788;2022-09-16T03:44:31;22.30;99.90
15409;DHT22;7803;48.130;13.788;2022-09-16T03:47:33;22.30;99.90
15409;DHT22;7803;48.130;13.788;2022-09-16T03:50:35;22.40;99.90
15409;DHT22;7803;48.130;13.788;2022-09-16T03:53:38;22.40;99.90
15409;DHT22;7803;48.130;13.788;2022-09-16T03:56:40;22.40;99.90
15409;DHT22;7803;48.130;13.788;2022-09-16T03:59:42;22.40;99.90
15409;DHT22;7803;48.130;13.788;2022-09-16T04:02:44;22.40;99.90
15409;DHT22;7803;48.130;13.788;2022-09-16T04:05:51;22.30;99.90
15409;DHT22;7803;48.130;13.788;2022-09-16T04:08:55;22.40;99.90
15409;DHT22;7803;48.130;13.788;2022-09-16T04:12:01;22.30;99.90
15409;DHT22;7803;48.130;13.788;2022-09-16T04:15:03;22.40;99.90
15409;DHT22;7803;48.130;13.788;2022-09-16T04:18:05;22.30;99.90
15409;DHT22;7803;48.130;13.788;2022-09-16T04:21:08;22.40;99.90
15409;DHT22;7803;48.130;13.788;2022-09-16T04:24:11;22.40;99.90
15409;DHT22;7803;48.130;13.788;2022-09-16T04:27:13;22.40;99.90
15409;DHT22;7803;48.130;13.788;2022-09-16T04:30:15;22.40;99.90
15409;DHT22;7803;48.130;13.788;2022-09-16T04:33:18;22.30;99.90
15409;DHT22;7803;48.130;13.788;2022-09-16T04:36:20;22.30;99.90
15409;DHT22;7803;48.130;13.788;2022-09-16T04:39:24;22.40;99.90
15409;DHT22;7803;48.130;13.788;2022-09-16T04:42:26;22.30;99.90
15409;DHT22;7803;48.130;13.788;2022-09-16T04:45:28;22.30;99.90
15409;DHT22;7803;48.130;13.788;2022-09-16T04:48:30;22.40;99.90
15409;DHT22;7803;48.130;13.788;2022-09-16T04:51:32;22.30;99.90
15409;DHT22;7803;48.130;13.788;2022-09-16T04:54:54;22.30;99.90
15409;DHT22;7803;48.130;13.788;2022-09-16T04:58:14;22.30;99.90
15409;DHT22;7803;48.130;13.788;2022-09-16T05:01:18;22.40;99.90
15409;DHT22;7803;48.130;13.788;2022-09-16T05:04:21;22.30;99.90
15409;DHT22;7803;48.130;13.788;2022-09-16T05:07:23;22.30;99.90
15409;DHT22;7803;48.130;13.788;2022-09-16T05:10:26;22.40;99.90
15409;DHT22;7803;48.130;13.788;2022-09-16T05:13:28;22.50;99.90
15409;DHT22;7803;48.130;13.788;2022-09-16T05:16:31;22.40;99.90
15409;DHT22;7803;48.130;13.788;2022-09-16T05:19:33;22.50;99.90
15409;DHT22;7803;48.130;13.788;2022-09-16T05:22:35;22.50;99.90
15409;DHT22;7803;48.130;13.788;2022-09-16T05:25:39;22.50;99.90
15409;DHT22;7803;48.130;13.788;2022-09-16T05:28:41;22.50;99.90
15409;DHT22;7803;48.130;13.788;2022-09-16T05:31:44;22.50;99.90
15409;DHT22;7803;48.130;13.788;2022-09-16T05:34:47;22.50;99.90
15409;DHT22;7803;48.130;13.788;2022-09-16T05:37:50;22.50;99.90
15409;DHT22;7803;48.130;13.788;2022-09-16T05:40:57;22.50;99.90
15409;DHT22;7803;48.130;13.788;2022-09-16T05:44:00;22.50;99.90
15409;DHT22;7803;48.130;13.788;2022-09-16T05:47:02;22.50;99.90
15409;DHT22;7803;48.130;13.788;2022-09-16T05:50:05;22.50;99.90
15409;DHT22;7803;48.130;13.788;2022-09-16T05:53:07;22.50;99.90
15409;DHT22;7803;48.130;13.788;2022-09-16T05:56:13;22.50;99.90
15409;DHT22;7803;48.130;13.788;2022-09-16T05:59:16;22.40;99.90
15409;DHT22;7803;48.130;13.788;2022-09-16T06:02:18;22.40;99.90
15409;DHT22;7803;48.130;13.788;2022-09-16T06:05:20;22.50;99.90
15409;DHT22;7803;48.130;13.788;2022-09-16T06:08:22;22.40;99.90
15409;DHT22;7803;48.130;13.788;2022-09-16T06:11:27;22.50;99.90
15409;DHT22;7803;48.130;13.788;2022-09-16T06:14:29;22.40;99.90
15409;DHT22;7803;48.130;13.788;2022-09-16T06:17:31;22.40;99.90
15409;DHT22;7803;48.130;13.788;2022-09-16T06:20:35;22.40;99.90
15409;DHT22;7803;48.130;13.788;2022-09-16T06:23:38;22.40;99.90
15409;DHT22;7803;48.130;13.788;2022-09-16T06:26:43;22.40;99.90
15409;DHT22;7803;48.130;13.788;2022-09-16T06:29:46;22.40;99.90
15409;DHT22;7803;48.130;13.788;2022-09-16T06:32:48;22.40;99.90
15409;DHT22;7803;48.130;13.788;2022-09-16T06:35:50;22.40;99.90
15409;DHT22;7803;48.130;13.788;2022-09-16T06:38:53;22.40;99.90
15409;DHT22;7803;48.130;13.788;2022-09-16T06:41:57;22.40;99.90
15409;DHT22;7803;48.130;13.788;2022-09-16T06:44:59;22.40;99.90
15409;DHT22;7803;48.130;13.788;2022-09-16T06:48:02;22.40;99.90
15409;DHT22;7803;48.130;13.788;2022-09-16T06:51:06;22.40;99.90
15409;DHT22;7803;48.130;13.788;2022-09-16T06:54:09;22.40;99.90
15409;DHT22;7803;48.130;13.788;2022-09-16T06:57:13;22.40;99.90
15409;DHT22;7803;48.130;13.788;2022-09-16T07:00:16;22.40;99.90
15409;DHT22;7803;48.130;13.788;2022-09-16T07:03:18;22.40;99.90
15409;DHT22;7803;48.130;13.788;2022-09-16T07:06:22;22.40;99.90
15409;DHT22;7803;48.130;13.788;2022-09-16T07:09:24;22.40;99.90
15409;DHT22;7803;48.130;13.788;2022-09-16T07:12:28;22.40;99.90
15409;DHT22;7803;48.130;13.788;2022-09-16T07:15:30;22.40;99.90
15409;DHT22;7803;48.130;13.788;2022-09-16T07:18:33;22.40;99.90
15409;DHT22;7803;48.130;13.788;2022-09-16T07:21:35;22.40;99.90
15409;DHT22;7803;48.130;13.788;2022-09-16T07:24:37;22.40;99.90
15409;DHT22;7803;48.130;13.788;2022-09-16T07:27:40;22.40;99.90
15409;DHT22;7803;48.130;13.788;2022-09-16T07:30:42;22.40;99.90
15409;DHT22;7803;48.130;13.788;2022-09-16T07:33:46;22.40;99.90
15409;DHT22;7803;48.130;13.788;2022-09-16T07:36:48;22.40;99.90
15409;DHT22;7803;48.130;13.788;2022-09-16T07:39:50;22.40;99.90
15409;DHT22;7803;48.130;13.788;2022-09-16T07:42:54;22.40;99.90
15409;DHT22;7803;48.130;13.788;2022-09-16T07:45:56;22.40;99.90
15409;DHT22;7803;48.130;13.788;2022-09-16T07:48:59;22.40;99.90
15409;DHT22;7803;48.130;13.788;2022-09-16T07:52:02;22.40;99.90
15409;DHT22;7803;48.130;13.788;2022-09-16T07:55:04;22.40;99.90
15409;DHT22;7803;48.130;13.788;2022-09-16T07:58:08;22.40;99.90
15409;DHT22;7803;48.130;13.788;2022-09-16T08:01:10;22.40;99.90
15409;DHT22;7803;48.130;13.788;2022-09-16T08:04:12;22.40;99.90
15409;DHT22;7803;48.130;13.788;2022-09-16T08:07:15;22.30;99.90
15409;DHT22;7803;48.130;13.788;2022-09-16T08:10:16;22.40;99.90
15409;DHT22;7803;48.130;13.788;2022-09-16T08:13:20;22.40;99.90
15409;DHT22;7803;48.130;13.788;2022-09-16T08:16:22;22.30;99.90
15409;DHT22;7803;48.130;13.788;2022-09-16T08:19:24;22.40;99.90
15409;DHT22;7803;48.130;13.788;2022-09-16T08:22:26;22.40;99.90
15409;DHT22;7803;48.130;13.788;2022-09-16T08:25:28;22.40;99.90
15409;DHT22;7803;48.130;13.788;2022-09-16T08:28:32;22.30;99.90
15409;DHT22;7803;48.130;13.788;2022-09-16T08:31:34;22.40;99.90
15409;DHT22;7803;48.130;13.788;2022-09-16T08:34:37;22.40;99.90
15409;DHT22;7803;48.130;13.788;2022-09-16T08:37:40;22.40;99.90
15409;DHT22;7803;48.130;13.788;2022-09-16T08:40:43;22.40;99.90
15409;DHT22;7803;48.130;13.788;2022-09-16T08:43:54;22.40;99.90
15409;DHT22;7803;48.130;13.788;2022-09-16T08:47:00;22.40;99.90
15409;DHT22;7803;48.130;13.788;2022-09-16T08:50:05;22.30;99.90
15409;DHT22;7803;48.130;13.788;2022-09-16T08:53:14;22.30;99.90
15409;DHT22;7803;48.130;13.788;2022-09-16T08:56:20;22.40;99.90
15409;DHT22;7803;48.130;13.788;2022-09-16T08:59:27;22.40;99.90
15409;DHT22;7803;48.130;13.788;2022-09-16T09:02:39;22.40;99.90
15409;DHT22;7803;48.130;13.788;2022-09-16T09:05:48;22.40;99.90
15409;DHT22;7803;48.130;13.788;2022-09-16T09:08:55;22.40;99.90
15409;DHT22;7803;48.130;13.788;2022-09-16T09:12:06;22.40;99.90
15409;DHT22;7803;48.130;13.788;2022-09-16T09:15:29;22.30;99.90
15409;DHT22;7803;48.130;13.788;2022-09-16T09:18:39;22.40;99.90
15409;DHT22;7803;48.130;13.788;2022-09-16T09:21:49;22.30;99.90
15409;DHT22;7803;48.130;13.788;2022-09-16T09:25:06;22.30;99.90
15409;DHT22;7803;48.130;13.788;2022-09-16T09:28:27;22.40;99.90
15409;DHT22;7803;48.130;13.788;2022-09-16T09:31:42;22.40;99.90
15409;DHT22;7803;48.130;13.788;2022-09-16T09:35:03;22.40;99.90
15409;DHT22;7803;48.130;13.788;2022-09-16T09:38:31;22.40;99.90
15409;DHT22;7803;48.130;13.788;2022-09-16T09:41:38;22.30;99.90
15409;DHT22;7803;48.130;13.788;2022-09-16T09:44:49;22.40;99.90
15409;DHT22;7803;48.130;13.788;2022-09-16T09:47:56;22.40;99.90
15409;DHT22;7803;48.130;13.788;2022-09-16T09:51:00;22.40;99.90
15409;DHT22;7803;48.130;13.788;2022-09-16T09:54:26;22.40;99.90
15409;DHT22;7803;48.130;13.788;2022-09-16T09:57:31;22.40;99.90
15409;DHT22;7803;48.130;13.788;2022-09-16T10:00:35;22.40;99.90
15409;DHT22;7803;48.130;13.788;2022-09-16T10:03:38;22.40;99.90
15409;DHT22;7803;48.130;13.788;2022-09-16T10:06:41;22.30;99.90
15409;DHT22;7803;48.130;13.788;2022-09-16T10:09:48;22.40;99.90
15409;DHT22;7803;48.130;13.788;2022-09-16T10:12:52;22.40;99.90
15409;DHT22;7803;48.130;13.788;2022-09-16T10:16:06;22.40;99.90
15409;DHT22;7803;48.130;13.788;2022-09-16T10:19:19;22.40;99.90
15409;DHT22;7803;48.130;13.788;2022-09-16T10:22:25;22.40;99.90
15409;DHT22;7803;48.130;13.788;2022-09-16T10:25:30;22.40;99.90
15409;DHT22;7803;48.130;13.788;2022-09-16T10:28:33;22.40;99.90
15409;DHT22;7803;48.130;13.788;2022-09-16T10:31:36;22.30;99.90
15409;DHT22;7803;48.130;13.788;2022-09-16T10:34:40;22.40;99.90
15409;DHT22;7803;48.130;13.788;2022-09-16T10:37:48;22.40;99.90
15409;DHT22;7803;48.130;13.788;2022-09-16T10:40:52;22.40;99.90
15409;DHT22;7803;48.130;13.788;2022-09-16T10:43:56;22.30;99.90
15409;DHT22;7803;48.130;13.788;2022-09-16T10:47:01;22.40;99.90
15409;DHT22;7803;48.130;13.788;2022-09-16T10:50:07;22.40;99.90
15409;DHT22;7803;48.130;13.788;2022-09-16T10:53:21;22.40;99.90
15409;DHT22;7803;48.130;13.788;2022-09-16T10:56:25;22.40;99.90
15409;DHT22;7803;48.130;13.788;2022-09-16T10:59:28;22.40;99.90
15409;DHT22;7803;48.130;13.788;2022-09-16T11:02:51;22.40;99.90
15409;DHT22;7803;48.130;13.788;2022-09-16T11:06:06;22.40;99.90
15409;DHT22;7803;48.130;13.788;2022-09-16T11:09:16;22.40;99.90
15409;DHT22;7803;48.130;13.788;2022-09-16T11:12:40;22.40;99.90
15409;DHT22;7803;48.130;13.788;2022-09-16T11:15:55;22.30;99.90
15409;DHT22;7803;48.130;13.788;2022-09-16T11:19:06;22.40;99.90
15409;DHT22;7803;48.130;13.788;2022-09-16T11:22:17;22.40;99.90
15409;DHT22;7803;48.130;13.788;2022-09-16T11:25:32;22.40;99.90
15409;DHT22;7803;48.130;13.788;2022-09-16T11:29:01;22.40;99.90
15409;DHT22;7803;48.130;13.788;2022-09-16T11:32:12;22.40;99.90
15409;DHT22;7803;48.130;13.788;2022-09-16T11:35:29;22.40;99.90
15409;DHT22;7803;48.130;13.788;2022-09-16T11:38:40;22.40;99.90
15409;DHT22;7803;48.130;13.788;2022-09-16T11:41:49;22.40;99.90
15409;DHT22;7803;48.130;13.788;2022-09-16T11:45:03;22.40;99.90
15409;DHT22;7803;48.130;13.788;2022-09-16T11:48:43;22.40;99.90
15409;DHT22;7803;48.130;13.788;2022-09-16T11:51:58;22.40;99.90
15409;DHT22;7803;48.130;13.788;2022-09-16T11:55:24;22.40;99.90
15409;DHT22;7803;48.130;13.788;2022-09-16T11:58:36;22.40;99.90
15409;DHT22;7803;48.130;13.788;2022-09-16T12:01:42;22.40;99.90
15409;DHT22;7803;48.130;13.788;2022-09-16T12:04:49;22.40;99.90
15409;DHT22;7803;48.130;13.788;2022-09-16T12:07:59;22.40;99.90
15409;DHT22;7803;48.130;13.788;2022-09-16T12:11:13;22.40;99.90
15409;DHT22;7803;48.130;13.788;2022-09-16T12:14:20;22.50;99.90
15409;DHT22;7803;48.130;13.788;2022-09-16T12:17:27;22.50;99.90
15409;DHT22;7803;48.130;13.788;2022-09-16T12:20:33;22.60;99.90
15409;DHT22;7803;48.130;13.788;2022-09-16T12:23:41;22.60;99.90
15409;DHT22;7803;48.130;13.788;2022-09-16T12:26:50;22.60;99.90
15409;DHT22;7803;48.130;13.788;2022-09-16T12:29:56;22.70;99.90
15409;DHT22;7803;48.130;13.788;2022-09-16T12:33:02;22.70;99.90
15409;DHT22;7803;48.130;13.788;2022-09-16T12:36:08;22.80;99.90
15409;DHT22;7803;48.130;13.788;2022-09-16T12:39:11;22.80;99.90
15409;DHT22;7803;48.130;13.788;2022-09-16T12:42:50;22.90;99.90
15409;DHT22;7803;48.130;13.788;2022-09-16T12:46:17;22.90;99.90
15409;DHT22;7803;48.130;13.788;2022-09-16T12:49:41;22.90;99.90
15409;DHT22;7803;48.130;13.788;2022-09-16T12:56:29;23.00;99.90
15409;DHT22;7803;48.130;13.788;2022-09-16T12:59:49;23.00;99.90
15409;DHT22;7803;48.130;13.788;2022-09-16T13:02:55;23.00;99.90
15409;DHT22;7803;48.130;13.788;2022-09-16T13:06:04;23.00;99.90
15409;DHT22;7803;48.130;13.788;2022-09-16T13:09:16;23.00;99.90
15409;DHT22;7803;48.130;13.788;2022-09-16T13:12:24;23.00;99.90
15409;DHT22;7803;48.130;13.788;2022-09-16T13:15:30;23.00;99.90
15409;DHT22;7803;48.130;13.788;2022-09-16T13:18:42;23.00;99.90
15409;DHT22;7803;48.130;13.788;2022-09-16T13:21:45;23.00;99.90
15409;DHT22;7803;48.130;13.788;2022-09-16T13:24:52;23.00;99.90
15409;DHT22;7803;48.130;13.788;2022-09-16T13:27:56;23.00;99.90
15409;DHT22;7803;48.130;13.788;2022-09-16T13:31:14;23.00;99.90
15409;DHT22;7803;48.130;13.788;2022-09-16T13:34:18;23.00;99.90
15409;DHT22;7803;48.130;13.788;2022-09-16T13:37:24;23.00;99.90
15409;DHT22;7803;48.130;13.788;2022-09-16T13:40:29;23.00;99.90
15409;DHT22;7803;48.130;13.788;2022-09-16T13:43:48;22.90;99.90
15409;DHT22;7803;48.130;13.788;2022-09-16T13:46:52;23.00;99.90
15409;DHT22;7803;48.130;13.788;2022-09-16T13:49:56;23.00;99.90
15409;DHT22;7803;48.130;13.788;2022-09-16T13:53:08;22.90;99.90
15409;DHT22;7803;48.130;13.788;2022-09-16T13:56:26;22.90;99.90
15409;DHT22;7803;48.130;13.788;2022-09-16T13:59:40;22.90;99.90
15409;DHT22;7803;48.130;13.788;2022-09-16T14:02:58;23.00;99.90
15409;DHT22;7803;48.130;13.788;2022-09-16T14:09:45;22.90;99.90
15409;DHT22;7803;48.130;13.788;2022-09-16T14:12:58;22.90;99.90
15409;DHT22;7803;48.130;13.788;2022-09-16T14:16:02;22.90;99.90
15409;DHT22;7803;48.130;13.788;2022-09-16T14:19:17;22.90;99.90
15409;DHT22;7803;48.130;13.788;2022-09-16T14:22:23;22.90;99.90
15409;DHT22;7803;48.130;13.788;2022-09-16T14:25:29;22.80;99.90
15409;DHT22;7803;48.130;13.788;2022-09-16T14:28:31;22.80;99.90
15409;DHT22;7803;48.130;13.788;2022-09-16T14:31:33;22.80;99.90
15409;DHT22;7803;48.130;13.788;2022-09-16T14:34:37;22.80;99.90
15409;DHT22;7803;48.130;13.788;2022-09-16T14:37:39;22.90;99.90
15409;DHT22;7803;48.130;13.788;2022-09-16T14:40:41;22.90;99.90
15409;DHT22;7803;48.130;13.788;2022-09-16T14:43:43;22.80;99.90
15409;DHT22;7803;48.130;13.788;2022-09-16T14:46:51;22.80;99.90
15409;DHT22;7803;48.130;13.788;2022-09-16T14:50:02;22.80;99.90
15409;DHT22;7803;48.130;13.788;2022-09-16T14:53:18;22.80;99.90
15409;DHT22;7803;48.130;13.788;2022-09-16T14:56:23;22.80;99.90
15409;DHT22;7803;48.130;13.788;2022-09-16T14:59:27;22.80;99.90
15409;DHT22;7803;48.130;13.788;2022-09-16T15:02:34;22.80;99.90
15409;DHT22;7803;48.130;13.788;2022-09-16T15:05:41;22.80;99.90
15409;DHT22;7803;48.130;13.788;2022-09-16T15:08:47;22.70;99.90
15409;DHT22;7803;48.130;13.788;2022-09-16T15:11:54;22.70;99.90
15409;DHT22;7803;48.130;13.788;2022-09-16T15:14:57;22.70;99.90
15409;DHT22;7803;48.130;13.788;2022-09-16T15:18:00;22.70;99.90
15409;DHT22;7803;48.130;13.788;2022-09-16T15:21:08;22.70;99.90
15409;DHT22;7803;48.130;13.788;2022-09-16T15:24:15;22.70;99.90
15409;DHT22;7803;48.130;13.788;2022-09-16T15:27:23;22.70;99.90
15409;DHT22;7803;48.130;13.788;2022-09-16T15:30:26;22.70;99.90
15409;DHT22;7803;48.130;13.788;2022-09-16T15:33:32;22.70;99.90
15409;DHT22;7803;48.130;13.788;2022-09-16T15:36:38;22.70;99.90
15409;DHT22;7803;48.130;13.788;2022-09-16T15:39:40;22.70;99.90
15409;DHT22;7803;48.130;13.788;2022-09-16T15:42:42;22.70;99.90
15409;DHT22;7803;48.130;13.788;2022-09-16T15:45:56;22.70;99.90
15409;DHT22;7803;48.130;13.788;2022-09-16T15:49:00;22.60;99.90
15409;DHT22;7803;48.130;13.788;2022-09-16T15:52:07;22.60;99.90
15409;DHT22;7803;48.130;13.788;2022-09-16T15:55:11;22.60;99.90
15409;DHT22;7803;48.130;13.788;2022-09-16T15:58:16;22.60;99.90
15409;DHT22;7803;48.130;13.788;2022-09-16T16:01:32;22.60;99.90
15409;DHT22;7803;48.130;13.788;2022-09-16T16:04:37;22.60;99.90
15409;DHT22;7803;48.130;13.788;2022-09-16T16:07:43;22.60;99.90
15409;DHT22;7803;48.130;13.788;2022-09-16T16:11:05;22.60;99.90
15409;DHT22;7803;48.130;13.788;2022-09-16T16:14:07;22.60;99.90
15409;DHT22;7803;48.130;13.788;2022-09-16T16:17:10;22.60;99.90
15409;DHT22;7803;48.130;13.788;2022-09-16T16:20:14;22.60;99.90
15409;DHT22;7803;48.130;13.788;2022-09-16T16:23:18;22.60;99.90
15409;DHT22;7803;48.130;13.788;2022-09-16T16:26:20;22.60;99.90
15409;DHT22;7803;48.130;13.788;2022-09-16T16:29:22;22.60;99.90
15409;DHT22;7803;48.130;13.788;2022-09-16T16:32:24;22.60;99.90
15409;DHT22;7803;48.130;13.788;2022-09-16T16:35:26;22.60;99.90
15409;DHT22;7803;48.130;13.788;2022-09-16T16:38:30;22.60;99.90
15409;DHT22;7803;48.130;13.788;2022-09-16T16:41:31;22.60;99.90
15409;DHT22;7803;48.130;13.788;2022-09-16T16:44:34;22.60;99.90
15409;DHT22;7803;48.130;13.788;2022-09-16T16:47:36;22.60;99.90
15409;DHT22;7803;48.130;13.788;2022-09-16T16:50:39;22.60;99.90
15409;DHT22;7803;48.130;13.788;2022-09-16T16:53:46;22.60;99.90
15409;DHT22;7803;48.130;13.788;2022-09-16T16:56:49;22.60;99.90
15409;DHT22;7803;48.130;13.788;2022-09-16T16:59:51;22.60;99.90
15409;DHT22;7803;48.130;13.788;2022-09-16T17:02:53;22.50;99.90
15409;DHT22;7803;48.130;13.788;2022-09-16T17:05:55;22.60;99.90
15409;DHT22;7803;48.130;13.788;2022-09-16T17:08:58;22.50;99.90
15409;DHT22;7803;48.130;13.788;2022-09-16T17:12:00;22.50;99.90
15409;DHT22;7803;48.130;13.788;2022-09-16T17:15:04;22.60;99.90
15409;DHT22;7803;48.130;13.788;2022-09-16T17:18:06;22.50;99.90
15409;DHT22;7803;48.130;13.788;2022-09-16T17:21:10;22.50;99.90
15409;DHT22;7803;48.130;13.788;2022-09-16T17:24:14;22.50;99.90
15409;DHT22;7803;48.130;13.788;2022-09-16T17:27:16;22.50;99.90
15409;DHT22;7803;48.130;13.788;2022-09-16T17:30:20;22.60;99.90
15409;DHT22;7803;48.130;13.788;2022-09-16T17:33:22;22.50;99.90
15409;DHT22;7803;48.130;13.788;2022-09-16T17:36:24;22.50;99.90
15409;DHT22;7803;48.130;13.788;2022-09-16T17:39:28;22.50;99.90
15409;DHT22;7803;48.130;13.788;2022-09-16T17:42:29;22.50;99.90
15409;DHT22;7803;48.130;13.788;2022-09-16T17:45:32;22.50;99.90
15409;DHT22;7803;48.130;13.788;2022-09-16T17:48:34;22.50;99.90
15409;DHT22;7803;48.130;13.788;2022-09-16T17:51:37;22.50;99.90
15409;DHT22;7803;48.130;13.788;2022-09-16T17:54:41;22.50;99.90
15409;DHT22;7803;48.130;13.788;2022-09-16T17:57:43;22.50;99.90
15409;DHT22;7803;48.130;13.788;2022-09-16T18:00:45;22.50;99.90
15409;DHT22;7803;48.130;13.788;2022-09-16T18:03:49;22.50;99.90
15409;DHT22;7803;48.130;13.788;2022-09-16T18:06:51;22.50;99.90
15409;DHT22;7803;48.130;13.788;2022-09-16T18:09:54;22.50;99.90
15409;DHT22;7803;48.130;13.788;2022-09-16T18:12:56;22.50;99.90
15409;DHT22;7803;48.130;13.788;2022-09-16T18:16:02;22.50;99.90
15409;DHT22;7803;48.130;13.788;2022-09-16T18:19:05;22.50;99.90
15409;DHT22;7803;48.130;13.788;2022-09-16T18:22:07;22.50;99.90
15409;DHT22;7803;48.130;13.788;2022-09-16T18:25:11;22.40;99.90
15409;DHT22;7803;48.130;13.788;2022-09-16T18:28:13;22.40;99.90
15409;DHT22;7803;48.130;13.788;2022-09-16T18:31:17;22.40;99.90
15409;DHT22;7803;48.130;13.788;2022-09-16T18:34:19;22.40;99.90
15409;DHT22;7803;48.130;13.788;2022-09-16T18:37:21;22.40;99.90
15409;DHT22;7803;48.130;13.788;2022-09-16T18:40:24;22.40;99.90
15409;DHT22;7803;48.130;13.788;2022-09-16T18:43:26;22.40;99.90
15409;DHT22;7803;48.130;13.788;2022-09-16T18:46:30;22.40;99.90
15409;DHT22;7803;48.130;13.788;2022-09-16T18:49:32;22.40;99.90
15409;DHT22;7803;48.130;13.788;2022-09-16T18:52:34;22.40;99.90
15409;DHT22;7803;48.130;13.788;2022-09-16T18:55:37;22.40;99.90
15409;DHT22;7803;48.130;13.788;2022-09-16T18:58:39;22.40;99.90
15409;DHT22;7803;48.130;13.788;2022-09-16T19:01:42;22.40;99.90
15409;DHT22;7803;48.130;13.788;2022-09-16T19:04:48;22.40;99.90
15409;DHT22;7803;48.130;13.788;2022-09-16T19:07:50;22.40;99.90
15409;DHT22;7803;48.130;13.788;2022-09-16T19:10:53;22.30;99.90
15409;DHT22;7803;48.130;13.788;2022-09-16T19:13:55;22.30;99.90
15409;DHT22;7803;48.130;13.788;2022-09-16T19:16:57;22.40;99.90
15409;DHT22;7803;48.130;13.788;2022-09-16T19:19:59;22.40;99.90
15409;DHT22;7803;48.130;13.788;2022-09-16T19:23:01;22.40;99.90
15409;DHT22;7803;48.130;13.788;2022-09-16T19:26:05;22.40;99.90
15409;DHT22;7803;48.130;13.788;2022-09-16T19:29:07;22.30;99.90
15409;DHT22;7803;48.130;13.788;2022-09-16T19:32:09;22.30;99.90
15409;DHT22;7803;48.130;13.788;2022-09-16T19:35:11;22.40;99.90
15409;DHT22;7803;48.130;13.788;2022-09-16T19:38:15;22.40;99.90
15409;DHT22;7803;48.130;13.788;2022-09-16T19:41:20;22.40;99.90
15409;DHT22;7803;48.130;13.788;2022-09-16T19:44:22;22.40;99.90